Time;durP1;ratioP1;P1;durP2;ratioP2;P2;SDS_P1;SDS_P2;PMS_P1;PMS_P2;Temp;Humidity;BMP_temperature;BMP_pressure;BME280_temperature;BME280_humidity;BME280_pressure;Samples;Min_cycle;Max_cycle;Signal;HPM_P1;HPM_P2
2022/06/12 00:01:23;;;;;;;4.53;1.30;;;23.60;43.70;;;;;;5080224;28;20034;-54
2022/06/12 00:03:49;;;;;;;2.22;0.82;;;23.60;43.80;;;;;;5097589;28;20020;-50
2022/06/12 00:06:16;;;;;;;2.13;1.00;;;23.60;43.80;;;;;;5097814;28;20074;-51
2022/06/12 00:08:42;;;;;;;5.88;0.80;;;23.60;43.90;;;;;;5097883;28;20013;-55
2022/06/12 00:11:10;;;;;;;2.80;0.90;;;23.60;43.80;;;;;;5097593;28;20022;-48
2022/06/12 00:13:44;;;;;;;2.80;1.00;;;23.60;43.90;;;;;;5097161;28;20008;-50
2022/06/12 00:16:10;;;;;;;2.40;0.88;;;23.60;44.00;;;;;;5096718;28;20035;-47
2022/06/12 00:18:36;;;;;;;2.10;0.93;;;23.60;43.90;;;;;;5096699;28;20016;-50
2022/06/12 00:21:11;;;;;;;2.00;0.80;;;23.60;44.00;;;;;;5096804;28;20047;-49
2022/06/12 00:23:47;;;;;;;2.35;1.02;;;23.60;43.90;;;;;;5096506;28;20040;-54
2022/06/12 00:26:15;;;;;;;3.25;1.00;;;23.50;44.00;;;;;;5077442;28;20077;-48
2022/06/12 00:28:42;;;;;;;5.40;0.90;;;23.50;43.90;;;;;;5097027;28;20024;-50
2022/06/12 00:31:07;;;;;;;4.35;1.17;;;23.50;43.90;;;;;;5097006;28;20367;-48
2022/06/12 00:33:33;;;;;;;1.90;0.88;;;23.50;44.00;;;;;;5079607;28;20059;-49
2022/06/12 00:35:59;;;;;;;1.88;1.10;;;23.50;44.10;;;;;;5079314;28;20008;-48
2022/06/12 00:38:25;;;;;;;1.52;0.85;;;23.50;44.00;;;;;;5079339;28;20024;-50
2022/06/12 00:40:51;;;;;;;3.08;1.02;;;23.50;44.10;;;;;;5079498;28;20088;-48
2022/06/12 00:43:16;;;;;;;3.53;1.08;;;23.50;44.00;;;;;;5097232;28;20517;-50
2022/06/12 00:45:59;;;;;;;2.80;1.00;;;23.50;44.10;;;;;;5097378;28;20509;-49
2022/06/12 00:48:32;;;;;;;2.88;0.80;;;23.50;44.10;;;;;;5097286;28;20153;-50
2022/06/12 00:51:14;;;;;;;3.22;1.30;;;23.50;44.10;;;;;;5097609;28;20008;-50
2022/06/12 00:53:51;;;;;;;2.47;1.10;;;23.50;44.10;;;;;;5097593;28;20463;-56
2022/06/12 00:56:23;;;;;;;5.63;1.10;;;23.50;44.20;;;;;;5097603;28;20497;-54
2022/06/12 00:59:02;;;;;;;2.88;1.02;;;23.50;44.20;;;;;;5080984;28;20027;-52
2022/06/12 01:01:34;;;;;;;2.58;1.00;;;23.50;44.40;;;;;;5097625;28;20478;-51
2022/06/12 01:06:46;;;;;;;3.10;1.10;;;23.40;44.20;;;;;;5097584;28;20089;-53
2022/06/12 01:09:15;;;;;;;1.60;0.80;;;23.40;44.20;;;;;;5079998;28;20020;-51
2022/06/12 01:11:44;;;;;;;1.80;0.95;;;23.40;44.30;;;;;;5097911;28;20012;-49
2022/06/12 01:14:10;;;;;;;2.72;0.88;;;23.40;44.30;;;;;;5096731;28;20023;-53
2022/06/12 01:16:40;;;;;;;3.17;1.05;;;23.40;44.30;;;;;;5079006;28;20012;-55
2022/06/12 01:19:06;;;;;;;2.92;0.95;;;23.40;44.40;;;;;;5097926;28;20020;-53
2022/06/12 01:21:48;;;;;;;1.73;0.98;;;23.40;44.40;;;;;;5099206;28;20057;-53
2022/06/12 01:24:16;;;;;;;3.50;1.27;;;23.40;44.40;;;;;;5117610;28;20080;-55
2022/06/12 01:26:54;;;;;;;1.48;0.77;;;23.40;44.40;;;;;;5098856;28;20111;-53
2022/06/12 01:29:28;;;;;;;2.70;0.98;;;23.40;44.40;;;;;;5098833;28;20047;-48
2022/06/12 01:32:12;;;;;;;2.80;1.10;;;23.40;44.50;;;;;;5117121;28;20071;-54
2022/06/12 01:35:00;;;;;;;2.53;0.85;;;23.40;44.40;;;;;;5117290;28;20094;-49
2022/06/12 01:37:38;;;;;;;1.75;0.55;;;23.40;44.60;;;;;;5098106;28;20027;-52
2022/06/12 01:40:05;;;;;;;1.77;0.73;;;23.30;44.50;;;;;;5117670;28;20020;-54
2022/06/12 01:42:53;;;;;;;2.35;0.75;;;23.40;44.50;;;;;;5116748;28;20023;-54
2022/06/12 01:45:49;;;;;;;2.67;0.90;;;23.30;44.60;;;;;;5098081;28;20030;-49
2022/06/12 01:48:40;;;;;;;3.55;0.98;;;23.30;44.50;;;;;;5116661;28;20023;-53
2022/06/12 01:51:21;;;;;;;2.35;1.00;;;23.30;44.50;;;;;;5104884;28;20024;-54
2022/06/12 01:54:03;;;;;;;2.15;0.95;;;23.40;44.60;;;;;;5116553;28;20016;-53
2022/06/12 01:56:37;;;;;;;2.90;1.08;;;23.30;44.50;;;;;;5115228;28;20030;-56
2022/06/12 01:59:21;;;;;;;3.08;1.00;;;23.40;44.70;;;;;;5097272;28;20020;-52
2022/06/12 02:01:59;;;;;;;1.85;0.82;;;23.40;44.70;;;;;;5115411;28;20023;-54
2022/06/12 02:04:34;;;;;;;3.08;1.02;;;23.30;44.70;;;;;;5115415;28;20050;-56
2022/06/12 02:07:24;;;;;;;1.33;0.70;;;23.30;44.70;;;;;;5116124;28;20070;-54
2022/06/12 02:09:59;;;;;;;3.47;1.00;;;23.30;44.70;;;;;;5102592;28;20007;-49
2022/06/12 02:15:18;;;;;;;2.85;1.20;;;23.20;44.70;;;;;;5119171;28;20050;-54
2022/06/12 02:17:47;;;;;;;4.32;1.10;;;23.30;44.80;;;;;;5118625;28;20023;-56
2022/06/12 02:20:15;;;;;;;2.75;1.05;;;23.20;44.80;;;;;;5102230;28;20016;-51
2022/06/12 02:22:43;;;;;;;2.50;0.90;;;23.30;44.80;;;;;;5099313;28;20074;-51
2022/06/12 02:25:23;;;;;;;2.17;1.00;;;23.20;44.80;;;;;;5118963;28;20076;-53
2022/06/12 02:27:56;;;;;;;3.97;1.00;;;23.20;44.80;;;;;;5101342;28;20007;-52
2022/06/12 02:30:26;;;;;;;4.05;1.35;;;23.20;44.80;;;;;;5083959;28;20048;-56
2022/06/12 02:33:06;;;;;;;2.35;1.08;;;23.20;44.90;;;;;;5100494;28;20054;-48
2022/06/12 02:36:20;;;;;;;3.00;0.93;;;23.20;44.90;;;;;;5118671;28;20055;-54
2022/06/12 02:39:05;;;;;;;2.30;1.13;;;23.20;44.90;;;;;;5109590;28;20490;-56
2022/06/12 02:41:34;;;;;;;3.17;0.95;;;23.20;45.00;;;;;;5099183;28;20032;-57
2022/06/12 02:44:26;;;;;;;3.67;1.23;;;23.20;45.00;;;;;;5118059;28;20019;-53
2022/06/12 02:46:58;;;;;;;2.72;1.20;;;23.20;45.00;;;;;;5118921;28;20053;-54
2022/06/12 02:49:25;;;;;;;2.60;0.88;;;23.20;45.10;;;;;;5099686;28;20035;-55
2022/06/12 02:52:09;;;;;;;2.70;1.23;;;23.20;45.10;;;;;;5115389;28;20095;-48
2022/06/12 02:55:11;;;;;;;4.05;1.27;;;23.20;45.20;;;;;;5115049;28;20496;-50
2022/06/12 02:57:47;;;;;;;2.55;1.00;;;23.20;45.20;;;;;;5099734;28;20090;-49
2022/06/12 03:00:16;;;;;;;2.90;1.02;;;23.10;45.10;;;;;;5118053;28;20020;-56
2022/06/12 03:02:54;;;;;;;2.22;0.95;;;23.20;45.10;;;;;;5118855;28;20023;-56
2022/06/12 03:05:30;;;;;;;2.10;0.95;;;23.20;45.20;;;;;;5118747;28;20111;-53
2022/06/12 03:08:07;;;;;;;1.80;0.98;;;23.10;45.10;;;;;;5099563;28;20042;-57
2022/06/12 03:10:36;;;;;;;2.78;1.25;;;23.10;45.20;;;;;;5100941;28;20040;-54
2022/06/12 03:13:03;;;;;;;2.35;0.98;;;23.20;45.20;;;;;;5118832;28;20095;-54
2022/06/12 03:15:31;;;;;;;2.63;1.25;;;23.10;45.20;;;;;;5114753;28;20019;-53
2022/06/12 03:17:58;;;;;;;2.00;1.00;;;23.10;45.20;;;;;;5115040;28;20030;-54
2022/06/12 03:20:23;;;;;;;2.70;0.93;;;23.10;45.20;;;;;;5116178;28;20539;-51
2022/06/12 03:22:56;;;;;;;2.97;1.00;;;23.10;45.20;;;;;;5117215;28;20130;-53
2022/06/12 03:25:30;;;;;;;3.38;1.30;;;23.10;45.30;;;;;;5099200;28;20055;-53
2022/06/12 03:28:11;;;;;;;2.47;0.90;;;23.10;45.30;;;;;;5116889;28;20095;-53
2022/06/12 03:31:07;;;;;;;5.07;1.20;;;23.10;45.30;;;;;;5116505;28;20004;-55
2022/06/12 03:33:35;;;;;;;4.95;0.90;;;23.10;45.30;;;;;;5115147;28;20110;-55
2022/06/12 03:36:03;;;;;;;2.67;0.85;;;23.10;45.30;;;;;;5099620;28;20020;-52
2022/06/12 03:38:43;;;;;;;5.05;1.35;;;23.10;45.40;;;;;;5099213;28;20031;-54
2022/06/12 03:41:24;;;;;;;2.40;1.00;;;23.10;45.40;;;;;;5102299;28;20016;-56
2022/06/12 03:44:00;;;;;;;3.30;1.20;;;23.10;45.30;;;;;;5120614;28;20012;-54
2022/06/12 03:47:20;;;;;;;3.58;1.20;;;23.10;45.40;;;;;;5119566;28;20051;-54
2022/06/12 03:49:54;;;;;;;2.85;1.10;;;23.10;45.50;;;;;;4998708;28;20018;-56
2022/06/12 03:52:21;;;;;;;3.08;1.02;;;23.10;45.40;;;;;;5015693;28;20544;-54
2022/06/12 03:54:53;;;;;;;4.38;1.20;;;23.00;45.40;;;;;;5018567;28;20369;-54
2022/06/12 04:00:23;;;;;;;3.90;0.90;;;23.00;45.50;;;;;;5005004;28;20042;-55
2022/06/12 04:03:06;;;;;;;3.30;1.25;;;23.00;45.50;;;;;;5019649;28;20082;-52
2022/06/12 04:05:35;;;;;;;6.57;1.10;;;23.10;45.60;;;;;;5018416;28;20453;-55
2022/06/12 04:08:01;;;;;;;3.25;1.30;;;23.00;45.60;;;;;;5001900;28;20022;-58
2022/06/12 04:10:30;;;;;;;2.33;0.98;;;23.00;45.50;;;;;;5002378;28;20034;-52
2022/06/12 04:12:56;;;;;;;3.05;1.13;;;23.00;45.70;;;;;;5018605;28;20030;-54
2022/06/12 04:15:48;;;;;;;3.78;1.40;;;23.00;45.60;;;;;;5002034;28;20033;-54
2022/06/12 04:18:14;;;;;;;2.60;1.10;;;23.00;45.60;;;;;;5001957;28;20425;-51
2022/06/12 04:20:58;;;;;;;3.38;1.30;;;23.00;45.60;;;;;;4985005;28;20041;-52
2022/06/12 04:23:27;;;;;;;1.95;1.05;;;23.00;46.20;;;;;;5047148;28;20036;-55
2022/06/12 04:26:19;;;;;;;2.65;1.15;;;23.00;45.70;;;;;;5100669;28;20020;-51
2022/06/12 04:28:45;;;;;;;3.80;1.30;;;23.00;45.70;;;;;;5074310;28;20475;-55
2022/06/12 04:31:18;;;;;;;2.75;1.25;;;23.00;45.70;;;;;;5098902;28;20024;-57
2022/06/12 04:34:13;;;;;;;3.10;1.20;;;23.00;45.70;;;;;;5099057;28;20011;-55
2022/06/12 04:36:40;;;;;;;4.10;1.10;;;23.00;45.60;;;;;;5098129;28;20124;-53
2022/06/12 04:39:07;;;;;;;3.72;1.30;;;23.00;45.60;;;;;;5100009;28;20722;-54
2022/06/12 04:41:35;;;;;;;5.10;1.35;;;23.00;45.60;;;;;;5100724;28;20043;-49
2022/06/12 04:44:03;;;;;;;4.65;1.48;;;23.00;45.60;;;;;;5100519;28;20540;-53
2022/06/12 04:46:29;;;;;;;2.47;1.10;;;23.00;45.60;;;;;;5100853;28;20024;-49
2022/06/12 04:48:55;;;;;;;2.28;0.90;;;23.00;45.60;;;;;;5100747;28;20016;-55
2022/06/12 04:51:22;;;;;;;3.53;1.27;;;23.00;45.70;;;;;;5100749;28;20070;-52
2022/06/12 04:53:47;;;;;;;4.50;1.30;;;23.00;45.70;;;;;;5082074;28;20115;-53
2022/06/12 04:56:13;;;;;;;2.75;1.20;;;23.00;45.70;;;;;;5099375;28;20040;-51
2022/06/12 04:58:40;;;;;;;3.38;1.13;;;23.00;45.70;;;;;;5098966;28;20593;-53
2022/06/12 05:01:05;;;;;;;3.13;1.33;;;23.00;45.70;;;;;;5098888;28;20051;-51
2022/06/12 05:03:31;;;;;;;3.13;1.30;;;23.00;45.70;;;;;;5098968;28;20077;-53
2022/06/12 05:05:57;;;;;;;3.20;1.35;;;23.00;45.70;;;;;;5079242;28;20470;-51
2022/06/12 05:08:23;;;;;;;5.03;1.50;;;23.00;45.70;;;;;;5096349;28;20016;-53
2022/06/12 05:10:49;;;;;;;3.15;1.30;;;23.00;45.70;;;;;;5063772;28;20028;-55
2022/06/12 05:13:14;;;;;;;4.65;1.20;;;23.00;45.60;;;;;;5098145;28;20042;-55
2022/06/12 05:15:40;;;;;;;3.70;1.27;;;23.00;45.70;;;;;;5097296;28;20016;-52
2022/06/12 05:18:07;;;;;;;3.97;1.27;;;23.00;45.70;;;;;;5096970;28;20012;-51
2022/06/12 05:20:34;;;;;;;2.50;1.20;;;23.00;46.30;;;;;;5096144;28;20452;-52
2022/06/12 05:23:00;;;;;;;2.10;1.05;;;23.00;45.80;;;;;;5097278;28;20051;-55
2022/06/12 05:25:25;;;;;;;2.95;1.15;;;22.90;45.80;;;;;;5061123;28;20032;-53
2022/06/12 05:27:52;;;;;;;2.13;1.00;;;23.00;45.80;;;;;;5096418;28;20049;-49
2022/06/12 05:30:21;;;;;;;3.33;1.15;;;22.90;45.80;;;;;;5077749;28;20605;-50
2022/06/12 05:32:48;;;;;;;3.63;1.40;;;23.00;45.80;;;;;;5096117;28;20016;-54
2022/06/12 05:35:14;;;;;;;4.28;1.65;;;23.00;45.80;;;;;;5095897;28;20009;-52
2022/06/12 05:37:41;;;;;;;4.38;1.25;;;23.00;45.80;;;;;;5095198;28;20012;-49
2022/06/12 05:40:11;;;;;;;3.50;1.23;;;23.00;45.90;;;;;;5097838;28;20023;-50
2022/06/12 05:42:54;;;;;;;3.13;1.38;;;23.00;46.00;;;;;;5097408;28;20061;-47
2022/06/12 05:45:24;;;;;;;2.83;1.10;;;22.90;45.90;;;;;;5098915;28;20043;-51
2022/06/12 05:47:55;;;;;;;3.80;1.50;;;22.90;45.90;;;;;;5099744;28;20023;-53
2022/06/12 05:50:22;;;;;;;2.97;1.35;;;23.00;46.00;;;;;;5099816;28;20091;-51
2022/06/12 05:52:48;;;;;;;4.10;1.40;;;22.90;45.90;;;;;;5080805;28;20008;-53
2022/06/12 05:55:14;;;;;;;5.18;2.08;;;23.00;45.90;;;;;;5097234;28;21134;-50
2022/06/12 05:57:40;;;;;;;4.88;1.50;;;22.90;46.00;;;;;;5098910;28;20023;-55
2022/06/12 06:00:08;;;;;;;2.80;1.30;;;22.90;46.00;;;;;;5063880;28;20106;-53
2022/06/12 06:02:34;;;;;;;3.92;1.60;;;22.90;46.00;;;;;;5096449;28;20016;-54
2022/06/12 06:05:01;;;;;;;6.22;1.65;;;22.90;46.00;;;;;;5097990;28;20099;-51
2022/06/12 06:07:27;;;;;;;2.60;1.30;;;23.00;46.10;;;;;;5097866;28;20094;-55
2022/06/12 06:09:53;;;;;;;2.97;1.33;;;22.90;46.00;;;;;;5076836;28;20016;-53
2022/06/12 06:12:20;;;;;;;4.70;1.88;;;23.00;46.10;;;;;;5077365;28;20091;-50
2022/06/12 06:14:46;;;;;;;4.47;1.52;;;23.00;46.10;;;;;;5094614;28;20020;-57
2022/06/12 06:17:12;;;;;;;4.18;1.60;;;23.00;46.10;;;;;;5094568;28;20379;-57
2022/06/12 06:19:38;;;;;;;4.82;2.00;;;23.00;46.10;;;;;;5094561;28;20069;-56
2022/06/12 06:22:04;;;;;;;3.85;1.35;;;23.00;46.10;;;;;;5076706;28;20516;-59
2022/06/12 06:24:30;;;;;;;6.28;1.50;;;23.00;46.10;;;;;;5095994;28;20079;-54
2022/06/12 06:26:56;;;;;;;5.47;2.17;;;23.00;46.10;;;;;;5061130;28;20067;-53
2022/06/12 06:29:22;;;;;;;4.18;1.70;;;23.00;46.20;;;;;;5077912;28;20035;-56
2022/06/12 06:31:48;;;;;;;6.28;1.42;;;23.00;46.20;;;;;;5077566;28;20008;-57
2022/06/12 06:34:14;;;;;;;4.55;1.48;;;23.00;46.20;;;;;;5077432;28;20020;-55
2022/06/12 06:36:40;;;;;;;2.67;1.40;;;23.00;46.30;;;;;;5076169;28;20401;-56
2022/06/12 06:39:06;;;;;;;3.42;1.63;;;23.00;46.30;;;;;;5076709;28;21125;-47
2022/06/12 06:41:32;;;;;;;3.92;1.33;;;23.00;46.30;;;;;;5094422;28;20020;-49
2022/06/12 06:46:42;;;;;;;5.72;1.98;;;23.00;46.40;;;;;;5094114;28;20042;-48
2022/06/12 06:49:08;;;;;;;6.68;2.05;;;23.00;46.50;;;;;;5093823;28;20013;-48
2022/06/12 06:51:35;;;;;;;4.10;1.52;;;23.00;46.50;;;;;;5093969;28;20008;-52
2022/06/12 06:54:00;;;;;;;4.85;1.73;;;23.00;46.50;;;;;;5093921;28;20066;-53
2022/06/12 06:56:26;;;;;;;7.97;1.90;;;23.00;46.50;;;;;;5093722;28;20012;-51
2022/06/12 06:58:52;;;;;;;2.97;1.40;;;23.00;46.60;;;;;;5093640;28;20063;-51
2022/06/12 07:01:18;;;;;;;4.35;1.90;;;23.00;46.60;;;;;;5093671;28;20520;-53
2022/06/12 07:03:44;;;;;;;5.00;1.48;;;23.00;46.60;;;;;;5093761;28;20115;-53
2022/06/12 07:06:11;;;;;;;4.68;1.65;;;23.10;46.60;;;;;;5093757;28;20035;-52
2022/06/12 07:08:37;;;;;;;5.57;1.83;;;23.10;46.60;;;;;;5093840;28;20043;-51
2022/06/12 07:11:03;;;;;;;5.75;1.90;;;23.00;46.60;;;;;;5093623;28;20051;-50
2022/06/12 07:13:29;;;;;;;7.28;1.58;;;23.00;46.70;;;;;;5093855;28;20050;-50
2022/06/12 07:15:55;;;;;;;4.57;1.60;;;23.10;46.80;;;;;;5093624;28;20016;-54
2022/06/12 07:18:21;;;;;;;5.35;1.73;;;23.10;46.80;;;;;;5093601;28;20459;-49
2022/06/12 07:20:51;;;;;;;6.25;2.45;;;23.00;46.80;;;;;;5075841;28;20028;-54
2022/06/12 07:23:18;;;;;;;5.00;1.80;;;23.10;47.00;;;;;;5107336;28;20145;-55
2022/06/12 07:25:46;;;;;;;4.22;1.75;;;23.10;46.90;;;;;;5095237;28;20028;-54
2022/06/12 07:28:13;;;;;;;4.43;1.75;;;23.10;47.00;;;;;;5113797;28;20076;-55
2022/06/12 07:30:38;;;;;;;4.72;1.77;;;23.10;47.00;;;;;;5095400;28;20012;-54
2022/06/12 07:33:05;;;;;;;4.30;1.50;;;23.10;47.10;;;;;;5113286;28;20076;-55
2022/06/12 07:35:31;;;;;;;6.40;2.30;;;23.10;46.90;;;;;;5114365;28;20028;-54
2022/06/12 07:37:56;;;;;;;6.63;2.28;;;23.10;47.00;;;;;;5099252;28;20496;-55
2022/06/12 07:40:35;;;;;;;5.90;2.20;;;23.10;46.90;;;;;;5117066;28;20019;-52
2022/06/12 07:43:01;;;;;;;4.93;1.80;;;23.10;47.00;;;;;;5098830;28;20552;-54
2022/06/12 07:45:27;;;;;;;5.40;1.90;;;23.20;47.00;;;;;;5081667;28;20095;-54
2022/06/12 07:47:53;;;;;;;5.03;2.10;;;23.20;47.00;;;;;;5116648;28;20359;-54
2022/06/12 07:50:19;;;;;;;5.65;1.88;;;23.20;47.00;;;;;;5116873;28;20102;-54
2022/06/12 07:52:45;;;;;;;4.95;1.67;;;23.20;47.10;;;;;;5098662;28;20011;-54
2022/06/12 07:55:12;;;;;;;4.93;1.98;;;23.20;47.20;;;;;;5116735;28;20035;-54
2022/06/12 07:57:38;;;;;;;5.45;2.22;;;23.20;47.20;;;;;;5116707;28;20022;-54
2022/06/12 08:00:05;;;;;;;5.45;1.95;;;23.20;47.10;;;;;;5116870;28;20016;-54
2022/06/12 08:02:31;;;;;;;5.00;1.65;;;23.20;47.10;;;;;;5116764;28;20016;-54
2022/06/12 08:04:56;;;;;;;5.88;2.22;;;23.20;47.10;;;;;;5116656;28;20025;-54
2022/06/12 08:07:23;;;;;;;4.78;1.88;;;23.20;47.10;;;;;;5116939;28;20028;-56
2022/06/12 08:09:49;;;;;;;4.78;1.83;;;23.20;47.20;;;;;;5098785;28;20466;-55
2022/06/12 08:12:15;;;;;;;10.13;1.83;;;23.20;47.20;;;;;;5117092;28;20019;-56
2022/06/12 08:14:41;;;;;;;5.25;2.00;;;23.20;47.10;;;;;;5117236;28;20016;-56
2022/06/12 08:17:08;;;;;;;7.10;2.55;;;23.20;47.20;;;;;;5116987;28;20217;-53
2022/06/12 08:22:18;;;;;;;4.25;1.50;;;23.20;47.20;;;;;;5087413;28;20234;-54
2022/06/12 08:24:45;;;;;;;8.02;2.10;;;23.20;47.30;;;;;;5117173;28;20031;-54
2022/06/12 08:27:11;;;;;;;4.30;1.75;;;23.20;47.20;;;;;;5117061;28;20028;-55
2022/06/12 08:29:37;;;;;;;4.45;1.63;;;23.20;47.20;;;;;;5116921;28;20012;-56
2022/06/12 08:32:12;;;;;;;9.93;2.15;;;23.20;47.10;;;;;;5116728;28;20008;-55
2022/06/12 08:34:39;;;;;;;4.35;1.98;;;23.30;47.10;;;;;;5116768;28;20027;-56
2022/06/12 08:37:17;;;;;;;3.45;1.67;;;23.30;47.20;;;;;;5098703;28;20019;-56
2022/06/12 08:39:44;;;;;;;9.85;1.80;;;23.20;47.20;;;;;;5116222;28;20095;-54
2022/06/12 08:42:27;;;;;;;5.43;2.13;;;23.30;47.20;;;;;;5116181;28;20016;-56
2022/06/12 08:44:55;;;;;;;4.65;1.83;;;23.30;47.20;;;;;;5116209;28;20031;-55
2022/06/12 08:48:01;;;;;;;4.53;1.77;;;23.30;47.10;;;;;;5115457;28;20031;-55
2022/06/12 08:50:54;;;;;;;3.58;1.67;;;23.30;47.10;;;;;;5067109;28;20015;-57
2022/06/12 08:53:38;;;;;;;5.65;2.20;;;23.30;47.10;;;;;;5116281;28;20008;-55
2022/06/12 08:56:11;;;;;;;4.82;1.80;;;23.30;47.20;;;;;;5098892;28;20034;-58
2022/06/12 08:58:41;;;;;;;5.65;1.83;;;23.30;47.10;;;;;;5082030;28;20016;-55
2022/06/12 09:01:08;;;;;;;8.57;1.70;;;23.30;47.20;;;;;;5098290;28;20051;-56
2022/06/12 09:03:40;;;;;;;7.13;2.42;;;23.30;47.10;;;;;;5116067;28;20019;-54
2022/06/12 09:06:09;;;;;;;4.85;2.03;;;23.30;47.20;;;;;;5116443;28;20028;-56
2022/06/12 09:08:39;;;;;;;5.18;1.88;;;23.30;47.80;;;;;;5116605;28;20118;-54
2022/06/12 09:11:20;;;;;;;5.63;1.77;;;23.30;47.10;;;;;;5098361;28;20493;-55
2022/06/12 09:13:56;;;;;;;;;;;23.30;47.00;;;;;;5116882;28;20019;-56
2022/06/12 09:16:37;;;;;;;4.68;1.88;;;23.40;47.00;;;;;;5116471;28;19922;-57
2022/06/12 09:19:11;;;;;;;6.63;2.25;;;23.40;47.00;;;;;;5116386;28;20094;-57
2022/06/12 09:22:01;;;;;;;5.47;2.38;;;23.30;47.00;;;;;;5115619;28;20030;-55
2022/06/12 09:24:40;;;;;;;5.03;1.92;;;23.30;46.90;;;;;;5115576;28;20035;-56
2022/06/12 09:27:16;;;;;;;4.95;2.00;;;23.40;46.90;;;;;;5098316;28;20028;-55
2022/06/12 09:29:49;;;;;;;4.85;1.67;;;23.40;46.80;;;;;;5098177;28;20011;-55
2022/06/12 09:32:36;;;;;;;5.10;1.95;;;23.30;46.60;;;;;;5114801;28;20016;-55
2022/06/12 09:35:20;;;;;;;5.95;2.10;;;23.40;46.50;;;;;;5114955;28;20027;-55
2022/06/12 09:40:40;;;;;;;7.72;1.92;;;23.40;46.50;;;;;;5100163;28;20027;-55
2022/06/12 09:43:13;;;;;;;7.55;2.03;;;23.40;46.60;;;;;;5115358;28;20076;-54
2022/06/12 09:46:01;;;;;;;6.43;1.98;;;23.40;46.70;;;;;;5115245;28;20125;-56
2022/06/12 09:48:48;;;;;;;7.22;2.15;;;23.40;46.60;;;;;;5115252;28;20091;-54
2022/06/12 09:51:49;;;;;;;4.85;1.83;;;23.40;46.60;;;;;;5097220;28;20018;-58
2022/06/12 09:54:33;;;;;;;5.13;1.80;;;23.40;46.70;;;;;;5012634;28;20026;-55
2022/06/12 09:57:34;;;;;;;4.75;1.80;;;23.40;46.50;;;;;;5012272;28;20083;-56
2022/06/12 10:00:10;;;;;;;5.05;1.85;;;23.40;46.40;;;;;;4998064;28;20033;-55
2022/06/12 10:02:42;;;;;;;5.22;1.95;;;23.40;46.40;;;;;;5012095;28;20055;-54
2022/06/12 10:05:19;;;;;;;5.82;1.80;;;23.40;46.40;;;;;;5011986;28;20025;-55
2022/06/12 10:07:46;;;;;;;5.13;1.90;;;23.40;46.40;;;;;;4995655;28;20049;-52
2022/06/12 10:10:24;;;;;;;4.93;2.10;;;23.40;46.30;;;;;;4996432;28;20064;-57
2022/06/12 10:12:53;;;;;;;5.25;1.73;;;23.40;46.20;;;;;;5013216;28;20029;-54
2022/06/12 10:15:27;;;;;;;4.43;1.80;;;23.40;46.20;;;;;;5013268;28;20030;-56
2022/06/12 10:18:03;;;;;;;4.28;1.85;;;23.40;46.20;;;;;;4981313;28;20030;-53
2022/06/12 10:20:32;;;;;;;6.03;2.25;;;23.40;46.20;;;;;;5013328;28;20032;-54
2022/06/12 10:22:59;;;;;;;7.53;1.88;;;23.40;46.50;;;;;;4997648;28;20083;-58
2022/06/12 10:25:52;;;;;;;4.88;2.08;;;23.40;46.20;;;;;;5012028;28;20493;-49
2022/06/12 10:28:26;;;;;;;6.70;1.98;;;23.40;46.10;;;;;;5056091;28;20052;-53
2022/06/12 10:31:28;;;;;;;4.50;1.75;;;23.40;46.10;;;;;;5094691;28;20099;-51
2022/06/12 10:34:04;;;;;;;4.28;1.77;;;23.40;46.00;;;;;;5032458;28;20030;-51
2022/06/12 10:36:32;;;;;;;11.63;2.38;;;23.40;46.00;;;;;;5016877;28;20068;-53
2022/06/12 10:39:21;;;;;;;7.88;1.83;;;23.40;46.00;;;;;;5016804;28;20509;-56
2022/06/12 10:41:53;;;;;;;3.53;1.45;;;23.40;45.90;;;;;;5033334;28;20087;-57
2022/06/12 10:44:38;;;;;;;5.38;2.10;;;23.50;46.40;;;;;;5017319;28;20036;-56
2022/06/12 10:47:17;;;;;;;6.82;2.03;;;23.50;45.90;;;;;;5034136;28;20057;-51
2022/06/12 10:49:43;;;;;;;4.82;1.80;;;23.50;45.70;;;;;;5034561;28;20025;-51
2022/06/12 10:52:19;;;;;;;5.82;1.80;;;23.50;45.70;;;;;;5034150;28;20025;-53
2022/06/12 10:54:46;;;;;;;5.82;2.42;;;23.60;45.60;;;;;;5032962;28;20128;-53
2022/06/12 10:57:17;;;;;;;7.07;2.90;;;23.50;45.60;;;;;;5017312;28;20037;-52
2022/06/12 10:59:48;;;;;;;6.05;2.15;;;23.50;45.60;;;;;;5034488;28;20052;-52
2022/06/12 11:02:52;;;;;;;4.45;1.92;;;23.60;45.60;;;;;;5034756;28;20030;-51
2022/06/12 11:05:31;;;;;;;5.53;1.80;;;23.60;45.50;;;;;;5005016;28;20500;-50
2022/06/12 11:08:07;;;;;;;5.72;2.05;;;23.60;45.50;;;;;;5051056;28;20108;-51
2022/06/12 11:10:43;;;;;;;6.00;1.83;;;23.60;45.50;;;;;;5096395;28;20032;-52
2022/06/12 11:13:28;;;;;;;5.75;2.33;;;23.60;45.50;;;;;;5099735;28;20016;-50
2022/06/12 11:16:00;;;;;;;5.72;2.20;;;23.60;45.20;;;;;;5098779;28;20512;-52
2022/06/12 11:18:28;;;;;;;4.75;2.17;;;23.60;45.20;;;;;;5099271;28;20016;-54
2022/06/12 11:21:07;;;;;;;6.05;2.05;;;23.60;45.20;;;;;;5099359;28;20103;-54
2022/06/12 11:23:45;;;;;;;6.45;2.17;;;23.60;45.00;;;;;;5100659;28;20043;-53
2022/06/12 11:26:55;;;;;;;6.43;2.15;;;23.60;45.20;;;;;;5101254;28;20055;-53
2022/06/12 11:29:55;;;;;;;4.75;1.80;;;23.60;45.20;;;;;;5054396;28;20036;-49
2022/06/12 11:32:40;;;;;;;5.57;1.90;;;23.60;45.20;;;;;;5098010;28;20020;-51
2022/06/12 11:35:08;;;;;;;7.07;2.28;;;23.60;45.20;;;;;;5102360;28;20023;-49
2022/06/12 11:37:43;;;;;;;6.25;2.40;;;23.60;45.10;;;;;;5084930;28;20108;-52
2022/06/12 11:40:24;;;;;;;8.52;2.00;;;23.60;45.00;;;;;;5102433;28;20025;-55
2022/06/12 11:42:51;;;;;;;4.60;1.98;;;23.60;45.00;;;;;;5101473;28;20050;-52
2022/06/12 11:45:17;;;;;;;5.90;2.08;;;23.60;44.60;;;;;;5100937;28;20138;-55
2022/06/12 11:47:48;;;;;;;6.93;2.17;;;23.60;44.80;;;;;;5101255;28;20072;-50
2022/06/12 11:50:49;;;;;;;4.88;1.98;;;23.70;44.80;;;;;;5100994;28;20092;-53
2022/06/12 11:53:22;;;;;;;6.68;2.22;;;23.70;44.20;;;;;;5087069;28;20032;-54
2022/06/12 11:56:03;;;;;;;8.65;2.42;;;23.70;44.00;;;;;;5082853;28;20041;-53
2022/06/12 11:59:11;;;;;;;4.78;2.00;;;23.60;44.20;;;;;;5100340;28;20106;-53
2022/06/12 12:01:59;;;;;;;4.75;1.92;;;23.70;44.00;;;;;;5086992;28;20028;-53
2022/06/12 12:04:24;;;;;;;5.47;2.00;;;23.70;44.20;;;;;;5100332;28;20066;-52
2022/06/12 12:07:12;;;;;;;3.67;1.58;;;23.70;44.00;;;;;;5101055;28;20044;-52
2022/06/12 12:10:00;;;;;;;4.50;1.90;;;23.70;43.80;;;;;;5100418;28;20118;-57
2022/06/12 12:12:32;;;;;;;4.78;1.83;;;23.70;43.80;;;;;;5099978;28;20008;-52
2022/06/12 12:14:59;;;;;;;4.80;1.95;;;23.70;43.80;;;;;;5082520;28;20008;-54
2022/06/12 12:17:32;;;;;;;4.78;1.92;;;23.70;43.70;;;;;;5081546;28;20024;-52
2022/06/12 12:20:21;;;;;;;9.23;2.10;;;23.70;43.40;;;;;;5082978;28;20016;-53
2022/06/12 12:23:05;;;;;;;4.00;1.63;;;23.70;43.00;;;;;;5098374;28;20048;-56
2022/06/12 12:25:34;;;;;;;5.72;1.83;;;23.80;43.80;;;;;;5099207;28;20024;-54
2022/06/12 12:28:39;;;;;;;3.65;1.95;;;23.80;42.50;;;;;;5081968;28;20024;-52
2022/06/12 12:31:07;;;;;;;3.95;1.88;;;23.80;42.90;;;;;;5017428;28;20042;-52
2022/06/12 12:33:32;;;;;;;4.93;1.80;;;23.80;43.80;;;;;;5001144;28;20497;-58
2022/06/12 12:41:42;;;;;;;4.72;1.95;;;23.80;42.60;;;;;;5017711;28;20033;-52
2022/06/12 12:44:07;;;;;;;5.30;1.88;;;23.90;41.60;;;;;;5016979;28;20080;-53
2022/06/12 12:46:50;;;;;;;4.20;1.70;;;24.00;42.20;;;;;;5017375;28;20030;-54
2022/06/12 12:49:36;;;;;;;4.47;1.60;;;23.90;42.20;;;;;;5016895;28;20049;-54
2022/06/12 12:52:15;;;;;;;9.93;2.17;;;24.00;42.50;;;;;;5017533;28;20026;-54
2022/06/12 12:54:52;;;;;;;5.43;2.03;;;23.90;40.90;;;;;;5017495;28;20030;-56
2022/06/12 12:57:32;;;;;;;4.00;1.83;;;24.00;41.00;;;;;;5017323;28;20018;-51
2022/06/12 12:59:59;;;;;;;4.10;1.70;;;24.00;41.30;;;;;;5017700;28;20087;-54
2022/06/12 13:02:30;;;;;;;4.13;1.80;;;24.00;40.20;;;;;;5000762;28;20022;-53
2022/06/12 13:05:00;;;;;;;6.10;1.90;;;24.00;40.90;;;;;;5017020;28;20029;-51
2022/06/12 13:08:00;;;;;;;4.63;1.80;;;24.10;41.10;;;;;;5085047;28;20047;-55
2022/06/12 13:10:49;;;;;;;5.28;1.70;;;24.10;41.30;;;;;;5098072;28;20016;-56
2022/06/12 13:13:24;;;;;;;5.57;1.92;;;24.10;41.00;;;;;;5098257;28;20423;-55
2022/06/12 13:16:24;;;;;;;3.38;1.70;;;24.20;40.00;;;;;;5098893;28;20020;-51
2022/06/12 13:19:01;;;;;;;6.38;1.90;;;24.20;39.90;;;;;;5080516;28;20028;-54
2022/06/12 13:21:36;;;;;;;4.72;1.58;;;24.20;39.80;;;;;;5098526;28;20016;-55
2022/06/12 13:24:25;;;;;;;6.10;1.88;;;24.30;40.60;;;;;;5079898;28;20109;-52
2022/06/12 13:27:04;;;;;;;4.90;1.90;;;24.30;40.70;;;;;;5064928;28;20044;-53
2022/06/12 13:29:29;;;;;;;3.85;1.73;;;24.30;40.50;;;;;;5098203;28;20028;-53
2022/06/12 13:31:57;;;;;;;4.35;1.70;;;24.30;41.00;;;;;;5097323;28;20103;-55
2022/06/12 13:34:23;;;;;;;3.95;1.30;;;24.30;40.50;;;;;;5097225;28;20069;-49
2022/06/12 13:36:49;;;;;;;2.65;1.40;;;24.30;40.20;;;;;;5079147;28;20036;-55
2022/06/12 13:39:25;;;;;;;3.63;1.25;;;24.30;40.40;;;;;;5097764;28;20065;-53
2022/06/12 13:42:06;;;;;;;5.80;1.80;;;24.40;40.20;;;;;;5099590;28;20013;-57
2022/06/12 13:44:39;;;;;;;3.00;1.50;;;24.50;40.00;;;;;;5098110;28;20008;-53